BIAR

Details ICAO BIAR (AEY)
Name Akureyri
Region Iceland
Timezone Unknown (UTC+0.0)
Plans Departing 88
Arriving 108
Stats Elevation 5 ft / 2 m (AMSL)
Location 65.656574° -18.071975°
Runways 1
Magnetic Variation 12.296° W
Sunrise 2017-12-13 11:28:26 UTC / 2017-12-13 11:28:26 Local
Sunset 2017-12-13 14:47:26 UTC / 2017-12-13 14:47:26 Local
Advertisement - Login to hide

Runways

ID Width Length Bearing (true) Bearing (mag) Surface Threshold Offset Overrun Length
01 148 ft / 45 m 7,855 ft / 2,394 m 355.54° 7.84° Asphalt 0 ft / 0 m 0 ft / 0 m
19 148 ft / 45 m 7,855 ft / 2,394 m 175.54° 187.84° Asphalt 0 ft / 0 m 0 ft / 0 m

Approach Navaids

Runway Type Ident Frequency Range Bearing (true) Bearing (mag) Slope Elevation
01 Localiser IEY 111.90 MHz 18 nm / 33 km 24.00° 36.30° - 200 ft / 61 m (AMSL)
01 Glidescope IEY 111.90 MHz 10 nm / 19 km 358.14° 10.44° 5.00° 44 ft / 13 m (AMSL)

Map

Weather


0- 5 10 15 20 25 30 35+ Temperature / ° C

Clouds and Precipitation
Forecast for 2017-12-13 06:00 UTC. Updated 37 minutes ago

Ground ~20,000 ft ~40,000 ft Winds

METAR

BIAR 130100Z 31007KT 280V030 9999 -RA OVC017 03/01 Q0976

TAF

TAF TAF BIAR 130200Z 1303/1403 31005KT 9000 SNRA FEW022 BKN025 OVC035 TX00/1309Z TNM05/1324Z TEMPO 1303/1314 1500 SN OVC005 BECMG 1315/1317 35010KT 9000 SHSN SCT012CB BKN030

Frequencies

Tower 118.20 MHz TWR
Approach 118.70 MHz RADAR
Warning: Do not use this data for real-world aviation or navigation. No guarantee of current accuracy is given.